sensor_id;sensor_type;location;lat;lon;timestamp;P1;durP1;ratioP1;P2;durP2;ratioP2
40537;SDS011;27925;41.874;12.526;2023-08-17T00:00:11;8.90;;;4.03;;
40537;SDS011;27925;41.874;12.526;2023-08-17T00:02:40;7.78;;;4.40;;
40537;SDS011;27925;41.874;12.526;2023-08-17T00:05:06;8.25;;;5.60;;
40537;SDS011;27925;41.874;12.526;2023-08-17T00:07:32;9.10;;;5.75;;
40537;SDS011;27925;41.874;12.526;2023-08-17T00:09:58;7.28;;;4.68;;
40537;SDS011;27925;41.874;12.526;2023-08-17T00:12:24;7.82;;;4.20;;
40537;SDS011;27925;41.874;12.526;2023-08-17T00:14:50;6.82;;;3.78;;
40537;SDS011;27925;41.874;12.526;2023-08-17T00:17:16;8.75;;;4.32;;
40537;SDS011;27925;41.874;12.526;2023-08-17T00:19:42;6.72;;;3.83;;
40537;SDS011;27925;41.874;12.526;2023-08-17T00:22:08;9.48;;;4.10;;
40537;SDS011;27925;41.874;12.526;2023-08-17T00:24:33;7.68;;;4.70;;
40537;SDS011;27925;41.874;12.526;2023-08-17T00:26:59;6.93;;;4.85;;
40537;SDS011;27925;41.874;12.526;2023-08-17T00:29:25;8.02;;;4.93;;
40537;SDS011;27925;41.874;12.526;2023-08-17T00:31:51;8.18;;;4.38;;
40537;SDS011;27925;41.874;12.526;2023-08-17T00:34:17;10.10;;;4.80;;
40537;SDS011;27925;41.874;12.526;2023-08-17T00:36:43;6.88;;;4.30;;
40537;SDS011;27925;41.874;12.526;2023-08-17T00:39:09;7.00;;;4.80;;
40537;SDS011;27925;41.874;12.526;2023-08-17T00:41:35;9.60;;;5.10;;
40537;SDS011;27925;41.874;12.526;2023-08-17T00:44:01;8.32;;;5.03;;
40537;SDS011;27925;41.874;12.526;2023-08-17T00:46:26;7.43;;;5.55;;
40537;SDS011;27925;41.874;12.526;2023-08-17T00:48:53;9.73;;;5.15;;
40537;SDS011;27925;41.874;12.526;2023-08-17T00:51:21;9.75;;;4.50;;
40537;SDS011;27925;41.874;12.526;2023-08-17T00:53:48;8.40;;;5.13;;
40537;SDS011;27925;41.874;12.526;2023-08-17T00:56:19;8.93;;;5.15;;
40537;SDS011;27925;41.874;12.526;2023-08-17T00:58:46;9.75;;;5.05;;
40537;SDS011;27925;41.874;12.526;2023-08-17T01:01:13;10.52;;;4.72;;
40537;SDS011;27925;41.874;12.526;2023-08-17T01:03:39;8.25;;;4.53;;
40537;SDS011;27925;41.874;12.526;2023-08-17T01:06:09;11.60;;;4.97;;
40537;SDS011;27925;41.874;12.526;2023-08-17T01:08:38;9.32;;;4.72;;
40537;SDS011;27925;41.874;12.526;2023-08-17T01:16:56;7.93;;;4.90;;
40537;SDS011;27925;41.874;12.526;2023-08-17T01:19:28;8.00;;;4.53;;
40537;SDS011;27925;41.874;12.526;2023-08-17T01:21:57;9.18;;;4.88;;
40537;SDS011;27925;41.874;12.526;2023-08-17T01:26:53;8.68;;;4.80;;
40537;SDS011;27925;41.874;12.526;2023-08-17T01:29:19;7.65;;;4.40;;
40537;SDS011;27925;41.874;12.526;2023-08-17T01:34:33;8.73;;;4.90;;
40537;SDS011;27925;41.874;12.526;2023-08-17T01:37:07;12.68;;;5.20;;
40537;SDS011;27925;41.874;12.526;2023-08-17T01:39:40;9.88;;;5.03;;
40537;SDS011;27925;41.874;12.526;2023-08-17T01:42:08;9.97;;;5.10;;
40537;SDS011;27925;41.874;12.526;2023-08-17T01:44:37;12.98;;;5.07;;
40537;SDS011;27925;41.874;12.526;2023-08-17T01:47:03;8.80;;;4.88;;
40537;SDS011;27925;41.874;12.526;2023-08-17T01:49:29;9.93;;;5.47;;
40537;SDS011;27925;41.874;12.526;2023-08-17T01:51:55;12.70;;;4.90;;
40537;SDS011;27925;41.874;12.526;2023-08-17T01:54:20;8.90;;;4.50;;
40537;SDS011;27925;41.874;12.526;2023-08-17T01:56:47;11.48;;;5.20;;
40537;SDS011;27925;41.874;12.526;2023-08-17T01:59:12;10.43;;;5.60;;
40537;SDS011;27925;41.874;12.526;2023-08-17T02:01:38;12.90;;;4.93;;
40537;SDS011;27925;41.874;12.526;2023-08-17T02:04:04;10.32;;;5.47;;
40537;SDS011;27925;41.874;12.526;2023-08-17T02:06:29;7.30;;;4.70;;
40537;SDS011;27925;41.874;12.526;2023-08-17T02:08:55;10.20;;;4.85;;
40537;SDS011;27925;41.874;12.526;2023-08-17T02:11:21;7.82;;;5.00;;
40537;SDS011;27925;41.874;12.526;2023-08-17T02:13:46;11.20;;;6.13;;
40537;SDS011;27925;41.874;12.526;2023-08-17T02:16:12;8.75;;;5.20;;
40537;SDS011;27925;41.874;12.526;2023-08-17T02:18:38;9.68;;;5.25;;
40537;SDS011;27925;41.874;12.526;2023-08-17T02:21:03;11.00;;;6.10;;
40537;SDS011;27925;41.874;12.526;2023-08-17T02:23:29;10.35;;;6.00;;
40537;SDS011;27925;41.874;12.526;2023-08-17T02:25:55;10.95;;;5.75;;
40537;SDS011;27925;41.874;12.526;2023-08-17T02:28:21;10.20;;;6.32;;
40537;SDS011;27925;41.874;12.526;2023-08-17T02:30:46;10.93;;;6.32;;
40537;SDS011;27925;41.874;12.526;2023-08-17T02:33:13;8.88;;;5.72;;
40537;SDS011;27925;41.874;12.526;2023-08-17T02:35:38;12.13;;;6.60;;
40537;SDS011;27925;41.874;12.526;2023-08-17T02:38:04;8.10;;;6.03;;
40537;SDS011;27925;41.874;12.526;2023-08-17T02:40:30;10.40;;;6.35;;
40537;SDS011;27925;41.874;12.526;2023-08-17T02:42:55;10.95;;;6.05;;
40537;SDS011;27925;41.874;12.526;2023-08-17T02:45:21;13.55;;;6.32;;
40537;SDS011;27925;41.874;12.526;2023-08-17T02:47:47;9.75;;;6.10;;
40537;SDS011;27925;41.874;12.526;2023-08-17T02:50:12;12.30;;;6.28;;
40537;SDS011;27925;41.874;12.526;2023-08-17T02:52:38;8.35;;;5.97;;
40537;SDS011;27925;41.874;12.526;2023-08-17T02:55:04;10.45;;;5.95;;
40537;SDS011;27925;41.874;12.526;2023-08-17T02:57:30;9.60;;;5.40;;
40537;SDS011;27925;41.874;12.526;2023-08-17T02:59:56;9.60;;;5.60;;
40537;SDS011;27925;41.874;12.526;2023-08-17T03:02:21;9.95;;;5.93;;
40537;SDS011;27925;41.874;12.526;2023-08-17T03:04:47;8.93;;;5.28;;
40537;SDS011;27925;41.874;12.526;2023-08-17T03:07:13;8.15;;;5.28;;
40537;SDS011;27925;41.874;12.526;2023-08-17T03:09:38;10.75;;;5.35;;
40537;SDS011;27925;41.874;12.526;2023-08-17T03:12:04;7.13;;;4.88;;
40537;SDS011;27925;41.874;12.526;2023-08-17T03:14:30;8.48;;;5.35;;
40537;SDS011;27925;41.874;12.526;2023-08-17T03:16:55;7.03;;;5.00;;
40537;SDS011;27925;41.874;12.526;2023-08-17T03:19:21;7.65;;;5.25;;
40537;SDS011;27925;41.874;12.526;2023-08-17T03:21:47;10.02;;;5.60;;
40537;SDS011;27925;41.874;12.526;2023-08-17T03:24:12;9.50;;;5.32;;
40537;SDS011;27925;41.874;12.526;2023-08-17T03:26:38;9.85;;;5.20;;
40537;SDS011;27925;41.874;12.526;2023-08-17T03:29:04;10.25;;;5.10;;
40537;SDS011;27925;41.874;12.526;2023-08-17T03:31:29;13.10;;;5.45;;
40537;SDS011;27925;41.874;12.526;2023-08-17T03:33:55;7.47;;;5.18;;
40537;SDS011;27925;41.874;12.526;2023-08-17T03:36:21;9.80;;;5.15;;
40537;SDS011;27925;41.874;12.526;2023-08-17T03:38:47;10.27;;;5.72;;
40537;SDS011;27925;41.874;12.526;2023-08-17T03:41:13;8.57;;;5.15;;
40537;SDS011;27925;41.874;12.526;2023-08-17T03:43:38;11.15;;;5.10;;
40537;SDS011;27925;41.874;12.526;2023-08-17T03:46:04;9.18;;;5.47;;
40537;SDS011;27925;41.874;12.526;2023-08-17T03:48:30;9.02;;;5.13;;
40537;SDS011;27925;41.874;12.526;2023-08-17T03:50:56;9.43;;;6.13;;
40537;SDS011;27925;41.874;12.526;2023-08-17T03:53:22;12.32;;;5.68;;
40537;SDS011;27925;41.874;12.526;2023-08-17T03:55:48;8.25;;;5.18;;
40537;SDS011;27925;41.874;12.526;2023-08-17T03:58:15;12.68;;;5.30;;
40537;SDS011;27925;41.874;12.526;2023-08-17T04:00:41;9.10;;;4.90;;
40537;SDS011;27925;41.874;12.526;2023-08-17T04:03:08;11.07;;;5.65;;
40537;SDS011;27925;41.874;12.526;2023-08-17T04:05:33;9.82;;;5.38;;
40537;SDS011;27925;41.874;12.526;2023-08-17T04:08:00;11.70;;;6.13;;
40537;SDS011;27925;41.874;12.526;2023-08-17T04:10:28;8.88;;;5.13;;
40537;SDS011;27925;41.874;12.526;2023-08-17T04:12:54;11.10;;;5.30;;
40537;SDS011;27925;41.874;12.526;2023-08-17T04:15:21;9.07;;;5.47;;
40537;SDS011;27925;41.874;12.526;2023-08-17T04:17:46;13.30;;;5.30;;
40537;SDS011;27925;41.874;12.526;2023-08-17T04:20:12;7.75;;;5.40;;
40537;SDS011;27925;41.874;12.526;2023-08-17T04:22:38;8.55;;;5.55;;
40537;SDS011;27925;41.874;12.526;2023-08-17T04:25:04;12.52;;;5.72;;
40537;SDS011;27925;41.874;12.526;2023-08-17T04:27:30;7.85;;;5.25;;
40537;SDS011;27925;41.874;12.526;2023-08-17T04:29:56;8.43;;;5.32;;
40537;SDS011;27925;41.874;12.526;2023-08-17T04:32:22;9.32;;;5.72;;
40537;SDS011;27925;41.874;12.526;2023-08-17T04:34:48;10.05;;;5.25;;
40537;SDS011;27925;41.874;12.526;2023-08-17T04:37:14;8.27;;;4.88;;
40537;SDS011;27925;41.874;12.526;2023-08-17T04:39:40;9.68;;;5.32;;
40537;SDS011;27925;41.874;12.526;2023-08-17T04:42:06;7.70;;;4.90;;
40537;SDS011;27925;41.874;12.526;2023-08-17T04:44:32;8.23;;;5.25;;
40537;SDS011;27925;41.874;12.526;2023-08-17T04:46:58;8.32;;;4.90;;
40537;SDS011;27925;41.874;12.526;2023-08-17T04:49:24;7.90;;;4.80;;
40537;SDS011;27925;41.874;12.526;2023-08-17T04:51:51;7.53;;;4.90;;
40537;SDS011;27925;41.874;12.526;2023-08-17T04:54:17;11.30;;;7.18;;
40537;SDS011;27925;41.874;12.526;2023-08-17T04:56:43;8.82;;;5.65;;
40537;SDS011;27925;41.874;12.526;2023-08-17T04:59:09;13.40;;;5.90;;
40537;SDS011;27925;41.874;12.526;2023-08-17T05:01:34;8.57;;;5.88;;
40537;SDS011;27925;41.874;12.526;2023-08-17T05:04:00;9.02;;;5.93;;
40537;SDS011;27925;41.874;12.526;2023-08-17T05:06:29;9.00;;;5.32;;
40537;SDS011;27925;41.874;12.526;2023-08-17T05:08:55;7.38;;;5.00;;
40537;SDS011;27925;41.874;12.526;2023-08-17T05:11:21;8.82;;;5.43;;
40537;SDS011;27925;41.874;12.526;2023-08-17T05:13:47;7.10;;;5.25;;
40537;SDS011;27925;41.874;12.526;2023-08-17T05:16:13;10.57;;;5.68;;
40537;SDS011;27925;41.874;12.526;2023-08-17T05:18:38;9.57;;;5.80;;
40537;SDS011;27925;41.874;12.526;2023-08-17T05:21:04;9.68;;;5.60;;
40537;SDS011;27925;41.874;12.526;2023-08-17T05:23:30;8.35;;;5.47;;
40537;SDS011;27925;41.874;12.526;2023-08-17T05:25:55;8.63;;;5.93;;
40537;SDS011;27925;41.874;12.526;2023-08-17T05:28:21;7.72;;;5.45;;
40537;SDS011;27925;41.874;12.526;2023-08-17T05:30:48;9.90;;;5.30;;
40537;SDS011;27925;41.874;12.526;2023-08-17T05:33:14;9.40;;;5.72;;
40537;SDS011;27925;41.874;12.526;2023-08-17T05:35:39;7.72;;;5.38;;
40537;SDS011;27925;41.874;12.526;2023-08-17T05:38:07;9.15;;;5.78;;
40537;SDS011;27925;41.874;12.526;2023-08-17T05:40:33;10.82;;;7.20;;
40537;SDS011;27925;41.874;12.526;2023-08-17T05:42:59;9.55;;;5.57;;
40537;SDS011;27925;41.874;12.526;2023-08-17T05:45:25;8.88;;;5.07;;
40537;SDS011;27925;41.874;12.526;2023-08-17T05:47:51;9.60;;;5.13;;
40537;SDS011;27925;41.874;12.526;2023-08-17T05:50:17;8.18;;;5.18;;
40537;SDS011;27925;41.874;12.526;2023-08-17T05:52:43;9.18;;;5.13;;
40537;SDS011;27925;41.874;12.526;2023-08-17T05:55:09;15.40;;;5.32;;
40537;SDS011;27925;41.874;12.526;2023-08-17T05:57:34;8.45;;;6.05;;
40537;SDS011;27925;41.874;12.526;2023-08-17T06:00:00;8.23;;;5.03;;
40537;SDS011;27925;41.874;12.526;2023-08-17T06:02:26;10.70;;;4.88;;
40537;SDS011;27925;41.874;12.526;2023-08-17T06:04:51;6.82;;;4.60;;
40537;SDS011;27925;41.874;12.526;2023-08-17T06:07:17;8.57;;;4.60;;
40537;SDS011;27925;41.874;12.526;2023-08-17T06:09:43;8.80;;;4.32;;
40537;SDS011;27925;41.874;12.526;2023-08-17T06:12:09;7.32;;;4.80;;
40537;SDS011;27925;41.874;12.526;2023-08-17T06:14:34;9.25;;;4.55;;
40537;SDS011;27925;41.874;12.526;2023-08-17T06:17:00;7.57;;;4.47;;
40537;SDS011;27925;41.874;12.526;2023-08-17T06:19:26;11.27;;;4.78;;
40537;SDS011;27925;41.874;12.526;2023-08-17T06:21:51;6.82;;;4.32;;
40537;SDS011;27925;41.874;12.526;2023-08-17T06:24:17;9.55;;;4.20;;
40537;SDS011;27925;41.874;12.526;2023-08-17T06:26:43;6.80;;;4.30;;
40537;SDS011;27925;41.874;12.526;2023-08-17T06:29:10;8.95;;;4.40;;
40537;SDS011;27925;41.874;12.526;2023-08-17T06:31:36;10.18;;;4.53;;
40537;SDS011;27925;41.874;12.526;2023-08-17T06:34:02;11.27;;;5.18;;
40537;SDS011;27925;41.874;12.526;2023-08-17T06:36:31;8.00;;;4.75;;
40537;SDS011;27925;41.874;12.526;2023-08-17T06:38:58;7.47;;;4.43;;
40537;SDS011;27925;41.874;12.526;2023-08-17T06:41:23;6.25;;;3.92;;
40537;SDS011;27925;41.874;12.526;2023-08-17T06:43:50;7.57;;;4.60;;
40537;SDS011;27925;41.874;12.526;2023-08-17T06:46:16;9.13;;;4.78;;
40537;SDS011;27925;41.874;12.526;2023-08-17T06:48:42;28.67;;;7.05;;
40537;SDS011;27925;41.874;12.526;2023-08-17T06:51:08;15.75;;;4.30;;
40537;SDS011;27925;41.874;12.526;2023-08-17T06:53:34;18.13;;;5.38;;
40537;SDS011;27925;41.874;12.526;2023-08-17T06:56:00;8.30;;;4.13;;
40537;SDS011;27925;41.874;12.526;2023-08-17T06:58:26;7.55;;;4.57;;
40537;SDS011;27925;41.874;12.526;2023-08-17T07:00:51;8.20;;;4.30;;
40537;SDS011;27925;41.874;12.526;2023-08-17T07:03:17;10.48;;;4.20;;
40537;SDS011;27925;41.874;12.526;2023-08-17T07:05:43;8.65;;;4.82;;
40537;SDS011;27925;41.874;12.526;2023-08-17T07:08:09;8.63;;;4.55;;
40537;SDS011;27925;41.874;12.526;2023-08-17T07:10:35;9.88;;;4.82;;
40537;SDS011;27925;41.874;12.526;2023-08-17T07:13:01;8.38;;;4.50;;
40537;SDS011;27925;41.874;12.526;2023-08-17T07:15:30;10.43;;;4.10;;
40537;SDS011;27925;41.874;12.526;2023-08-17T07:17:56;7.60;;;4.45;;
40537;SDS011;27925;41.874;12.526;2023-08-17T07:20:22;17.73;;;5.15;;
40537;SDS011;27925;41.874;12.526;2023-08-17T07:22:47;11.93;;;5.07;;
40537;SDS011;27925;41.874;12.526;2023-08-17T07:25:13;7.18;;;4.38;;
40537;SDS011;27925;41.874;12.526;2023-08-17T07:27:39;9.50;;;4.38;;
40537;SDS011;27925;41.874;12.526;2023-08-17T07:30:06;8.90;;;4.40;;
40537;SDS011;27925;41.874;12.526;2023-08-17T07:32:33;9.85;;;4.50;;
40537;SDS011;27925;41.874;12.526;2023-08-17T07:34:59;10.05;;;4.82;;
40537;SDS011;27925;41.874;12.526;2023-08-17T07:37:25;6.88;;;3.85;;
40537;SDS011;27925;41.874;12.526;2023-08-17T07:39:57;9.05;;;4.28;;
40537;SDS011;27925;41.874;12.526;2023-08-17T07:42:23;6.55;;;3.60;;
40537;SDS011;27925;41.874;12.526;2023-08-17T07:44:49;8.02;;;4.55;;
40537;SDS011;27925;41.874;12.526;2023-08-17T07:47:15;7.32;;;4.47;;
40537;SDS011;27925;41.874;12.526;2023-08-17T07:49:40;8.93;;;4.47;;
40537;SDS011;27925;41.874;12.526;2023-08-17T07:52:06;10.77;;;4.53;;
40537;SDS011;27925;41.874;12.526;2023-08-17T07:54:32;8.77;;;4.45;;
40537;SDS011;27925;41.874;12.526;2023-08-17T07:56:58;11.13;;;4.68;;
40537;SDS011;27925;41.874;12.526;2023-08-17T07:59:24;8.63;;;4.55;;
40537;SDS011;27925;41.874;12.526;2023-08-17T08:01:50;9.00;;;4.10;;
40537;SDS011;27925;41.874;12.526;2023-08-17T08:04:16;8.05;;;4.38;;
40537;SDS011;27925;41.874;12.526;2023-08-17T08:06:42;8.43;;;4.70;;
40537;SDS011;27925;41.874;12.526;2023-08-17T08:09:08;11.90;;;4.93;;
40537;SDS011;27925;41.874;12.526;2023-08-17T08:11:33;15.68;;;5.38;;
40537;SDS011;27925;41.874;12.526;2023-08-17T08:13:59;8.95;;;4.72;;
40537;SDS011;27925;41.874;12.526;2023-08-17T08:16:26;28.63;;;8.02;;
40537;SDS011;27925;41.874;12.526;2023-08-17T08:18:52;11.60;;;5.50;;
40537;SDS011;27925;41.874;12.526;2023-08-17T08:21:18;11.57;;;5.47;;
40537;SDS011;27925;41.874;12.526;2023-08-17T08:23:44;17.75;;;6.70;;
40537;SDS011;27925;41.874;12.526;2023-08-17T08:26:09;18.30;;;6.15;;
40537;SDS011;27925;41.874;12.526;2023-08-17T08:28:35;17.63;;;6.53;;
40537;SDS011;27925;41.874;12.526;2023-08-17T08:31:01;11.82;;;5.40;;
40537;SDS011;27925;41.874;12.526;2023-08-17T08:33:28;8.90;;;5.10;;
40537;SDS011;27925;41.874;12.526;2023-08-17T08:35:54;9.82;;;5.00;;
40537;SDS011;27925;41.874;12.526;2023-08-17T08:38:19;16.20;;;6.00;;
40537;SDS011;27925;41.874;12.526;2023-08-17T08:40:46;9.27;;;5.10;;
40537;SDS011;27925;41.874;12.526;2023-08-17T08:43:13;7.35;;;5.00;;
40537;SDS011;27925;41.874;12.526;2023-08-17T08:45:41;11.95;;;5.07;;
40537;SDS011;27925;41.874;12.526;2023-08-17T08:48:09;14.43;;;6.15;;
40537;SDS011;27925;41.874;12.526;2023-08-17T08:50:38;23.05;;;7.20;;
40537;SDS011;27925;41.874;12.526;2023-08-17T08:53:08;35.92;;;8.38;;
40537;SDS011;27925;41.874;12.526;2023-08-17T08:55:38;18.98;;;6.13;;
40537;SDS011;27925;41.874;12.526;2023-08-17T08:58:17;36.58;;;10.13;;
40537;SDS011;27925;41.874;12.526;2023-08-17T09:00:45;11.55;;;5.38;;
40537;SDS011;27925;41.874;12.526;2023-08-17T09:03:12;13.45;;;5.53;;
40537;SDS011;27925;41.874;12.526;2023-08-17T09:05:39;8.50;;;4.68;;
40537;SDS011;27925;41.874;12.526;2023-08-17T09:08:08;13.23;;;5.18;;
40537;SDS011;27925;41.874;12.526;2023-08-17T09:10:36;6.72;;;4.80;;
40537;SDS011;27925;41.874;12.526;2023-08-17T09:13:03;21.92;;;6.85;;
40537;SDS011;27925;41.874;12.526;2023-08-17T09:15:28;11.40;;;5.30;;
40537;SDS011;27925;41.874;12.526;2023-08-17T09:17:54;29.05;;;7.18;;
40537;SDS011;27925;41.874;12.526;2023-08-17T09:23:09;12.32;;;4.65;;
40537;SDS011;27925;41.874;12.526;2023-08-17T09:25:42;13.95;;;4.97;;
40537;SDS011;27925;41.874;12.526;2023-08-17T09:28:09;7.78;;;4.72;;
40537;SDS011;27925;41.874;12.526;2023-08-17T09:30:57;7.90;;;4.63;;
40537;SDS011;27925;41.874;12.526;2023-08-17T09:33:23;20.92;;;6.05;;
40537;SDS011;27925;41.874;12.526;2023-08-17T09:35:51;7.75;;;5.22;;
40537;SDS011;27925;41.874;12.526;2023-08-17T09:38:18;11.35;;;5.60;;
40537;SDS011;27925;41.874;12.526;2023-08-17T09:40:44;15.10;;;7.03;;
40537;SDS011;27925;41.874;12.526;2023-08-17T09:43:10;12.70;;;7.10;;
40537;SDS011;27925;41.874;12.526;2023-08-17T09:45:39;10.68;;;5.80;;
40537;SDS011;27925;41.874;12.526;2023-08-17T09:48:05;8.38;;;5.22;;
40537;SDS011;27925;41.874;12.526;2023-08-17T09:50:33;13.35;;;6.18;;
40537;SDS011;27925;41.874;12.526;2023-08-17T09:52:59;11.10;;;5.97;;
40537;SDS011;27925;41.874;12.526;2023-08-17T09:55:25;10.70;;;5.68;;
40537;SDS011;27925;41.874;12.526;2023-08-17T09:57:51;10.60;;;5.80;;
40537;SDS011;27925;41.874;12.526;2023-08-17T10:00:17;12.88;;;6.32;;
40537;SDS011;27925;41.874;12.526;2023-08-17T10:02:44;21.42;;;7.10;;
40537;SDS011;27925;41.874;12.526;2023-08-17T10:05:14;10.52;;;5.63;;
40537;SDS011;27925;41.874;12.526;2023-08-17T10:07:46;10.75;;;5.78;;
40537;SDS011;27925;41.874;12.526;2023-08-17T10:10:16;7.47;;;5.07;;
40537;SDS011;27925;41.874;12.526;2023-08-17T10:16:03;11.63;;;5.90;;
40537;SDS011;27925;41.874;12.526;2023-08-17T10:21:21;8.48;;;5.70;;
40537;SDS011;27925;41.874;12.526;2023-08-17T10:24:01;8.85;;;6.45;;
40537;SDS011;27925;41.874;12.526;2023-08-17T10:26:28;8.65;;;5.47;;
40537;SDS011;27925;41.874;12.526;2023-08-17T10:28:55;9.00;;;5.95;;
40537;SDS011;27925;41.874;12.526;2023-08-17T10:31:23;10.10;;;6.38;;
40537;SDS011;27925;41.874;12.526;2023-08-17T10:33:50;9.25;;;6.32;;
40537;SDS011;27925;41.874;12.526;2023-08-17T10:36:16;8.55;;;5.95;;
40537;SDS011;27925;41.874;12.526;2023-08-17T10:38:43;7.35;;;6.05;;
40537;SDS011;27925;41.874;12.526;2023-08-17T10:41:12;9.63;;;6.30;;
40537;SDS011;27925;41.874;12.526;2023-08-17T10:43:58;10.15;;;6.07;;
40537;SDS011;27925;41.874;12.526;2023-08-17T10:46:42;8.57;;;6.63;;
40537;SDS011;27925;41.874;12.526;2023-08-17T10:49:31;9.20;;;6.13;;
40537;SDS011;27925;41.874;12.526;2023-08-17T10:51:59;13.07;;;6.53;;
40537;SDS011;27925;41.874;12.526;2023-08-17T10:54:36;10.05;;;7.15;;
40537;SDS011;27925;41.874;12.526;2023-08-17T11:00:13;10.57;;;6.20;;
40537;SDS011;27925;41.874;12.526;2023-08-17T11:02:51;9.60;;;6.43;;
40537;SDS011;27925;41.874;12.526;2023-08-17T11:08:28;8.85;;;6.43;;
40537;SDS011;27925;41.874;12.526;2023-08-17T11:11:13;14.88;;;6.50;;
40537;SDS011;27925;41.874;12.526;2023-08-17T11:13:40;9.85;;;6.30;;
40537;SDS011;27925;41.874;12.526;2023-08-17T11:16:07;7.18;;;5.82;;
40537;SDS011;27925;41.874;12.526;2023-08-17T11:18:34;10.82;;;6.47;;
40537;SDS011;27925;41.874;12.526;2023-08-17T11:21:01;10.48;;;6.20;;
40537;SDS011;27925;41.874;12.526;2023-08-17T11:23:28;6.75;;;5.93;;
40537;SDS011;27925;41.874;12.526;2023-08-17T11:25:55;9.80;;;5.75;;
40537;SDS011;27925;41.874;12.526;2023-08-17T11:28:21;8.60;;;5.95;;
40537;SDS011;27925;41.874;12.526;2023-08-17T11:30:58;8.23;;;5.82;;
40537;SDS011;27925;41.874;12.526;2023-08-17T11:33:28;7.70;;;6.20;;
40537;SDS011;27925;41.874;12.526;2023-08-17T11:35:58;8.00;;;5.70;;
40537;SDS011;27925;41.874;12.526;2023-08-17T11:38:25;9.65;;;5.63;;
40537;SDS011;27925;41.874;12.526;2023-08-17T11:40:54;7.38;;;5.20;;
40537;SDS011;27925;41.874;12.526;2023-08-17T11:43:22;8.07;;;5.53;;
40537;SDS011;27925;41.874;12.526;2023-08-17T11:45:48;8.02;;;5.28;;
40537;SDS011;27925;41.874;12.526;2023-08-17T11:48:14;6.70;;;4.93;;
40537;SDS011;27925;41.874;12.526;2023-08-17T11:50:42;8.13;;;5.20;;
40537;SDS011;27925;41.874;12.526;2023-08-17T11:53:08;12.23;;;5.10;;
40537;SDS011;27925;41.874;12.526;2023-08-17T11:55:33;9.35;;;5.40;;
40537;SDS011;27925;41.874;12.526;2023-08-17T11:57:59;7.55;;;5.05;;
40537;SDS011;27925;41.874;12.526;2023-08-17T12:00:26;8.18;;;4.85;;
40537;SDS011;27925;41.874;12.526;2023-08-17T12:02:52;11.68;;;5.25;;
40537;SDS011;27925;41.874;12.526;2023-08-17T12:05:22;8.20;;;4.60;;
40537;SDS011;27925;41.874;12.526;2023-08-17T12:07:49;7.15;;;4.45;;
40537;SDS011;27925;41.874;12.526;2023-08-17T12:10:15;7.85;;;4.63;;
40537;SDS011;27925;41.874;12.526;2023-08-17T12:12:42;8.63;;;5.03;;
40537;SDS011;27925;41.874;12.526;2023-08-17T12:15:09;10.07;;;4.82;;
40537;SDS011;27925;41.874;12.526;2023-08-17T12:17:38;8.90;;;4.85;;
40537;SDS011;27925;41.874;12.526;2023-08-17T12:20:14;6.18;;;4.38;;
40537;SDS011;27925;41.874;12.526;2023-08-17T12:22:44;12.43;;;4.82;;
40537;SDS011;27925;41.874;12.526;2023-08-17T12:25:10;7.82;;;4.80;;
40537;SDS011;27925;41.874;12.526;2023-08-17T12:27:36;9.30;;;5.15;;
40537;SDS011;27925;41.874;12.526;2023-08-17T12:30:02;8.63;;;4.85;;
40537;SDS011;27925;41.874;12.526;2023-08-17T12:32:28;11.68;;;4.93;;
40537;SDS011;27925;41.874;12.526;2023-08-17T12:34:54;8.55;;;4.80;;
40537;SDS011;27925;41.874;12.526;2023-08-17T12:37:20;6.70;;;4.13;;
40537;SDS011;27925;41.874;12.526;2023-08-17T12:39:46;11.98;;;4.35;;
40537;SDS011;27925;41.874;12.526;2023-08-17T12:42:13;10.07;;;4.93;;
40537;SDS011;27925;41.874;12.526;2023-08-17T12:44:40;7.68;;;4.40;;
40537;SDS011;27925;41.874;12.526;2023-08-17T12:47:06;7.75;;;4.30;;
40537;SDS011;27925;41.874;12.526;2023-08-17T12:49:32;7.43;;;4.28;;
40537;SDS011;27925;41.874;12.526;2023-08-17T12:51:57;8.55;;;4.35;;
40537;SDS011;27925;41.874;12.526;2023-08-17T12:54:23;10.20;;;4.90;;
40537;SDS011;27925;41.874;12.526;2023-08-17T12:56:49;9.43;;;5.00;;
40537;SDS011;27925;41.874;12.526;2023-08-17T12:59:14;8.15;;;4.70;;
40537;SDS011;27925;41.874;12.526;2023-08-17T13:01:40;8.52;;;4.65;;
40537;SDS011;27925;41.874;12.526;2023-08-17T13:04:07;9.05;;;4.53;;
40537;SDS011;27925;41.874;12.526;2023-08-17T13:06:32;8.93;;;4.15;;
40537;SDS011;27925;41.874;12.526;2023-08-17T13:08:58;11.98;;;4.70;;
40537;SDS011;27925;41.874;12.526;2023-08-17T13:11:24;7.72;;;4.30;;
40537;SDS011;27925;41.874;12.526;2023-08-17T13:13:49;7.30;;;4.53;;
40537;SDS011;27925;41.874;12.526;2023-08-17T13:16:15;9.25;;;4.43;;
40537;SDS011;27925;41.874;12.526;2023-08-17T13:18:41;9.18;;;5.18;;
40537;SDS011;27925;41.874;12.526;2023-08-17T13:21:06;7.00;;;4.55;;
40537;SDS011;27925;41.874;12.526;2023-08-17T13:23:32;6.65;;;4.22;;
40537;SDS011;27925;41.874;12.526;2023-08-17T13:25:58;6.38;;;3.88;;
40537;SDS011;27925;41.874;12.526;2023-08-17T13:28:24;8.02;;;4.10;;
40537;SDS011;27925;41.874;12.526;2023-08-17T13:30:49;8.50;;;4.43;;
40537;SDS011;27925;41.874;12.526;2023-08-17T13:33:15;8.23;;;4.15;;
40537;SDS011;27925;41.874;12.526;2023-08-17T13:35:41;8.32;;;3.80;;
40537;SDS011;27925;41.874;12.526;2023-08-17T13:38:07;9.85;;;3.72;;
40537;SDS011;27925;41.874;12.526;2023-08-17T13:40:33;9.30;;;3.80;;
40537;SDS011;27925;41.874;12.526;2023-08-17T13:43:01;5.70;;;2.95;;
40537;SDS011;27925;41.874;12.526;2023-08-17T13:45:28;8.50;;;3.78;;
40537;SDS011;27925;41.874;12.526;2023-08-17T13:47:54;6.68;;;3.20;;
40537;SDS011;27925;41.874;12.526;2023-08-17T13:50:19;6.93;;;3.60;;
40537;SDS011;27925;41.874;12.526;2023-08-17T13:52:45;6.38;;;3.42;;
40537;SDS011;27925;41.874;12.526;2023-08-17T13:55:12;6.70;;;2.97;;
40537;SDS011;27925;41.874;12.526;2023-08-17T13:57:37;4.93;;;3.20;;
40537;SDS011;27925;41.874;12.526;2023-08-17T14:00:03;6.10;;;3.15;;
40537;SDS011;27925;41.874;12.526;2023-08-17T14:02:29;6.35;;;3.25;;
40537;SDS011;27925;41.874;12.526;2023-08-17T14:04:56;7.80;;;2.97;;
40537;SDS011;27925;41.874;12.526;2023-08-17T14:07:22;4.32;;;2.60;;
40537;SDS011;27925;41.874;12.526;2023-08-17T14:09:48;5.47;;;2.65;;
40537;SDS011;27925;41.874;12.526;2023-08-17T14:12:13;6.68;;;2.70;;
40537;SDS011;27925;41.874;12.526;2023-08-17T14:14:39;5.72;;;2.65;;
40537;SDS011;27925;41.874;12.526;2023-08-17T14:17:05;5.90;;;2.92;;
40537;SDS011;27925;41.874;12.526;2023-08-17T14:19:30;6.70;;;2.35;;
40537;SDS011;27925;41.874;12.526;2023-08-17T14:21:56;4.00;;;2.17;;
40537;SDS011;27925;41.874;12.526;2023-08-17T14:24:24;6.18;;;2.65;;
40537;SDS011;27925;41.874;12.526;2023-08-17T14:26:50;4.10;;;2.42;;
40537;SDS011;27925;41.874;12.526;2023-08-17T14:29:15;5.63;;;2.47;;
